sensor_id;sensor_type;location;lat;lon;timestamp;temperature;humidity
55173;DHT22;41061;52.822;6.860;2022-12-07T00:03:36;4.10;99.90
55173;DHT22;41061;52.822;6.860;2022-12-07T00:06:03;4.10;99.90
55173;DHT22;41061;52.822;6.860;2022-12-07T00:08:31;4.10;99.90
55173;DHT22;41061;52.822;6.860;2022-12-07T00:13:31;4.00;99.90
55173;DHT22;41061;52.822;6.860;2022-12-07T00:16:07;4.00;99.90
55173;DHT22;41061;52.822;6.860;2022-12-07T00:18:33;3.90;99.90
55173;DHT22;41061;52.822;6.860;2022-12-07T00:21:01;3.80;99.90
55173;DHT22;41061;52.822;6.860;2022-12-07T00:23:27;3.90;99.90
55173;DHT22;41061;52.822;6.860;2022-12-07T00:25:53;3.80;99.90
55173;DHT22;41061;52.822;6.860;2022-12-07T00:28:19;3.80;99.90
55173;DHT22;41061;52.822;6.860;2022-12-07T00:30:45;3.80;99.90
55173;DHT22;41061;52.822;6.860;2022-12-07T00:33:10;3.80;99.90
55173;DHT22;41061;52.822;6.860;2022-12-07T00:35:36;3.80;99.90
55173;DHT22;41061;52.822;6.860;2022-12-07T00:38:02;3.80;99.90
55173;DHT22;41061;52.822;6.860;2022-12-07T00:40:27;3.80;99.90
55173;DHT22;41061;52.822;6.860;2022-12-07T00:42:53;3.80;99.90
55173;DHT22;41061;52.822;6.860;2022-12-07T00:45:19;3.90;99.90
55173;DHT22;41061;52.822;6.860;2022-12-07T00:47:44;3.90;99.90
55173;DHT22;41061;52.822;6.860;2022-12-07T00:50:10;3.90;99.90
55173;DHT22;41061;52.822;6.860;2022-12-07T00:52:36;3.90;99.90
55173;DHT22;41061;52.822;6.860;2022-12-07T00:55:01;3.90;99.90
55173;DHT22;41061;52.822;6.860;2022-12-07T00:57:27;3.80;99.90
55173;DHT22;41061;52.822;6.860;2022-12-07T00:59:53;3.90;99.90
55173;DHT22;41061;52.822;6.860;2022-12-07T01:02:22;3.80;99.90
55173;DHT22;41061;52.822;6.860;2022-12-07T01:04:48;3.80;99.90
55173;DHT22;41061;52.822;6.860;2022-12-07T01:07:14;3.80;99.90
55173;DHT22;41061;52.822;6.860;2022-12-07T01:09:39;3.80;99.90
55173;DHT22;41061;52.822;6.860;2022-12-07T01:12:05;3.70;99.90
55173;DHT22;41061;52.822;6.860;2022-12-07T01:14:31;3.80;99.90
55173;DHT22;41061;52.822;6.860;2022-12-07T01:16:56;3.70;99.90
55173;DHT22;41061;52.822;6.860;2022-12-07T01:19:22;3.70;99.90
55173;DHT22;41061;52.822;6.860;2022-12-07T01:21:48;3.60;99.90
55173;DHT22;41061;52.822;6.860;2022-12-07T01:24:13;3.70;99.90
55173;DHT22;41061;52.822;6.860;2022-12-07T01:26:39;3.60;99.90
55173;DHT22;41061;52.822;6.860;2022-12-07T01:29:05;3.60;99.90
55173;DHT22;41061;52.822;6.860;2022-12-07T01:31:31;3.60;99.90
55173;DHT22;41061;52.822;6.860;2022-12-07T01:33:58;3.60;99.90
55173;DHT22;41061;52.822;6.860;2022-12-07T01:36:26;3.60;99.90
55173;DHT22;41061;52.822;6.860;2022-12-07T01:39:00;3.50;99.90
55173;DHT22;41061;52.822;6.860;2022-12-07T01:41:29;3.50;99.90
55173;DHT22;41061;52.822;6.860;2022-12-07T01:46:37;3.40;99.90
55173;DHT22;41061;52.822;6.860;2022-12-07T01:49:06;3.50;99.90
55173;DHT22;41061;52.822;6.860;2022-12-07T01:51:34;3.40;99.90
55173;DHT22;41061;52.822;6.860;2022-12-07T01:54:03;3.40;99.90
55173;DHT22;41061;52.822;6.860;2022-12-07T01:56:29;3.40;99.90
55173;DHT22;41061;52.822;6.860;2022-12-07T01:58:56;3.40;99.90
55173;DHT22;41061;52.822;6.860;2022-12-07T02:01:22;3.40;99.90
55173;DHT22;41061;52.822;6.860;2022-12-07T02:03:48;3.30;99.90
55173;DHT22;41061;52.822;6.860;2022-12-07T02:06:19;3.40;99.90
55173;DHT22;41061;52.822;6.860;2022-12-07T02:08:47;3.30;99.90
55173;DHT22;41061;52.822;6.860;2022-12-07T02:11:13;3.30;99.90
55173;DHT22;41061;52.822;6.860;2022-12-07T02:13:41;3.30;99.90
55173;DHT22;41061;52.822;6.860;2022-12-07T02:24:05;3.30;99.90
55173;DHT22;41061;52.822;6.860;2022-12-07T02:32:15;3.50;99.90
55173;DHT22;41061;52.822;6.860;2022-12-07T02:37:21;3.60;99.90
55173;DHT22;41061;52.822;6.860;2022-12-07T02:39:59;3.60;99.90
55173;DHT22;41061;52.822;6.860;2022-12-07T02:42:34;3.60;99.90
55173;DHT22;41061;52.822;6.860;2022-12-07T02:45:02;3.60;99.90
55173;DHT22;41061;52.822;6.860;2022-12-07T02:47:29;3.60;99.90
55173;DHT22;41061;52.822;6.860;2022-12-07T02:49:57;3.60;99.90
55173;DHT22;41061;52.822;6.860;2022-12-07T02:52:23;3.50;99.90
55173;DHT22;41061;52.822;6.860;2022-12-07T02:54:48;3.50;99.90
55173;DHT22;41061;52.822;6.860;2022-12-07T02:57:45;3.50;99.90
55173;DHT22;41061;52.822;6.860;2022-12-07T03:00:18;3.50;99.90
55173;DHT22;41061;52.822;6.860;2022-12-07T03:02:58;3.40;99.90
55173;DHT22;41061;52.822;6.860;2022-12-07T03:08:16;3.30;99.90
55173;DHT22;41061;52.822;6.860;2022-12-07T03:11:29;3.30;99.90
55173;DHT22;41061;52.822;6.860;2022-12-07T03:14:13;3.30;99.90
55173;DHT22;41061;52.822;6.860;2022-12-07T03:16:52;3.30;99.90
55173;DHT22;41061;52.822;6.860;2022-12-07T03:19:20;3.30;99.90
55173;DHT22;41061;52.822;6.860;2022-12-07T03:21:57;3.30;99.90
55173;DHT22;41061;52.822;6.860;2022-12-07T03:24:35;3.30;99.90
55173;DHT22;41061;52.822;6.860;2022-12-07T03:27:18;3.30;99.90
55173;DHT22;41061;52.822;6.860;2022-12-07T03:30:16;3.30;99.90
55173;DHT22;41061;52.822;6.860;2022-12-07T03:32:54;3.30;99.90
55173;DHT22;41061;52.822;6.860;2022-12-07T03:35:44;3.20;99.90
55173;DHT22;41061;52.822;6.860;2022-12-07T03:38:19;3.30;99.90
55173;DHT22;41061;52.822;6.860;2022-12-07T03:41:01;3.40;99.90
55173;DHT22;41061;52.822;6.860;2022-12-07T03:43:29;3.50;99.90
55173;DHT22;41061;52.822;6.860;2022-12-07T03:46:05;3.50;99.90
55173;DHT22;41061;52.822;6.860;2022-12-07T03:48:38;3.50;99.90
55173;DHT22;41061;52.822;6.860;2022-12-07T03:51:25;3.50;99.90
55173;DHT22;41061;52.822;6.860;2022-12-07T03:53:59;3.50;99.90
55173;DHT22;41061;52.822;6.860;2022-12-07T03:56:26;3.50;99.90
55173;DHT22;41061;52.822;6.860;2022-12-07T03:58:54;3.50;99.90
55173;DHT22;41061;52.822;6.860;2022-12-07T04:01:20;3.50;99.90
55173;DHT22;41061;52.822;6.860;2022-12-07T04:03:46;3.50;99.90
55173;DHT22;41061;52.822;6.860;2022-12-07T04:06:11;3.50;99.90
55173;DHT22;41061;52.822;6.860;2022-12-07T04:08:37;3.40;99.90
55173;DHT22;41061;52.822;6.860;2022-12-07T04:11:03;3.50;99.90
55173;DHT22;41061;52.822;6.860;2022-12-07T04:13:28;3.40;99.90
55173;DHT22;41061;52.822;6.860;2022-12-07T04:15:54;3.50;99.90
55173;DHT22;41061;52.822;6.860;2022-12-07T04:18:20;3.40;99.90
55173;DHT22;41061;52.822;6.860;2022-12-07T04:20:46;3.40;99.90
55173;DHT22;41061;52.822;6.860;2022-12-07T04:23:12;3.40;99.90
55173;DHT22;41061;52.822;6.860;2022-12-07T04:25:37;3.30;99.90
55173;DHT22;41061;52.822;6.860;2022-12-07T04:28:03;3.40;99.90
55173;DHT22;41061;52.822;6.860;2022-12-07T04:30:29;3.30;99.90
55173;DHT22;41061;52.822;6.860;2022-12-07T04:32:55;3.30;99.90
55173;DHT22;41061;52.822;6.860;2022-12-07T04:35:20;3.30;99.90
55173;DHT22;41061;52.822;6.860;2022-12-07T04:37:46;3.30;99.90
55173;DHT22;41061;52.822;6.860;2022-12-07T04:40:12;3.30;99.90
55173;DHT22;41061;52.822;6.860;2022-12-07T04:42:39;3.30;99.90
55173;DHT22;41061;52.822;6.860;2022-12-07T04:45:06;3.20;99.90
55173;DHT22;41061;52.822;6.860;2022-12-07T04:47:32;3.20;99.90
55173;DHT22;41061;52.822;6.860;2022-12-07T04:49:57;3.20;99.90
55173;DHT22;41061;52.822;6.860;2022-12-07T04:52:23;3.10;99.90
55173;DHT22;41061;52.822;6.860;2022-12-07T04:54:49;3.10;99.90
55173;DHT22;41061;52.822;6.860;2022-12-07T04:57:14;3.10;99.90
55173;DHT22;41061;52.822;6.860;2022-12-07T04:59:40;3.00;99.90
55173;DHT22;41061;52.822;6.860;2022-12-07T05:02:06;3.00;99.90
55173;DHT22;41061;52.822;6.860;2022-12-07T05:04:31;3.00;99.90
55173;DHT22;41061;52.822;6.860;2022-12-07T05:06:57;2.90;99.90
55173;DHT22;41061;52.822;6.860;2022-12-07T05:09:23;2.90;99.90
55173;DHT22;41061;52.822;6.860;2022-12-07T05:11:48;2.80;99.90
55173;DHT22;41061;52.822;6.860;2022-12-07T05:14:17;2.90;99.90
55173;DHT22;41061;52.822;6.860;2022-12-07T05:16:45;2.80;99.90
55173;DHT22;41061;52.822;6.860;2022-12-07T05:19:11;2.80;99.90
55173;DHT22;41061;52.822;6.860;2022-12-07T05:21:38;2.80;99.90
55173;DHT22;41061;52.822;6.860;2022-12-07T05:24:05;2.70;99.90
55173;DHT22;41061;52.822;6.860;2022-12-07T05:26:31;2.70;99.90
55173;DHT22;41061;52.822;6.860;2022-12-07T05:28:57;2.70;99.90
55173;DHT22;41061;52.822;6.860;2022-12-07T05:31:24;2.70;99.90
55173;DHT22;41061;52.822;6.860;2022-12-07T05:33:50;2.70;99.90
55173;DHT22;41061;52.822;6.860;2022-12-07T05:36:16;2.70;99.90
55173;DHT22;41061;52.822;6.860;2022-12-07T05:38:41;2.70;99.90
55173;DHT22;41061;52.822;6.860;2022-12-07T05:41:08;2.80;99.90
55173;DHT22;41061;52.822;6.860;2022-12-07T05:43:56;2.80;99.90
55173;DHT22;41061;52.822;6.860;2022-12-07T05:46:22;2.80;99.90
55173;DHT22;41061;52.822;6.860;2022-12-07T05:48:48;2.90;99.90
55173;DHT22;41061;52.822;6.860;2022-12-07T05:51:13;2.90;99.90
55173;DHT22;41061;52.822;6.860;2022-12-07T05:53:39;3.00;99.90
55173;DHT22;41061;52.822;6.860;2022-12-07T05:56:05;3.00;99.90
55173;DHT22;41061;52.822;6.860;2022-12-07T05:58:31;3.00;99.90
55173;DHT22;41061;52.822;6.860;2022-12-07T06:01:15;3.10;99.90
55173;DHT22;41061;52.822;6.860;2022-12-07T06:03:40;3.10;99.90
55173;DHT22;41061;52.822;6.860;2022-12-07T06:06:06;3.10;99.90
55173;DHT22;41061;52.822;6.860;2022-12-07T06:08:32;3.10;99.90
55173;DHT22;41061;52.822;6.860;2022-12-07T06:10:57;3.10;99.90
55173;DHT22;41061;52.822;6.860;2022-12-07T06:13:42;3.00;99.90
55173;DHT22;41061;52.822;6.860;2022-12-07T06:16:07;3.00;99.90
55173;DHT22;41061;52.822;6.860;2022-12-07T06:18:33;3.00;99.90
55173;DHT22;41061;52.822;6.860;2022-12-07T06:20:59;2.90;99.90
55173;DHT22;41061;52.822;6.860;2022-12-07T06:23:25;2.90;99.90
55173;DHT22;41061;52.822;6.860;2022-12-07T06:25:50;3.00;99.90
55173;DHT22;41061;52.822;6.860;2022-12-07T06:28:16;2.90;99.90
55173;DHT22;41061;52.822;6.860;2022-12-07T06:30:41;2.90;99.90
55173;DHT22;41061;52.822;6.860;2022-12-07T06:33:07;3.00;99.90
55173;DHT22;41061;52.822;6.860;2022-12-07T06:35:33;2.90;99.90
55173;DHT22;41061;52.822;6.860;2022-12-07T06:37:59;2.90;99.90
55173;DHT22;41061;52.822;6.860;2022-12-07T06:40:25;2.90;99.90
55173;DHT22;41061;52.822;6.860;2022-12-07T06:42:50;2.90;99.90
55173;DHT22;41061;52.822;6.860;2022-12-07T06:45:16;2.80;99.90
55173;DHT22;41061;52.822;6.860;2022-12-07T06:47:42;2.80;99.90
55173;DHT22;41061;52.822;6.860;2022-12-07T06:50:08;2.80;99.90
55173;DHT22;41061;52.822;6.860;2022-12-07T06:52:33;2.80;99.90
55173;DHT22;41061;52.822;6.860;2022-12-07T06:54:59;2.80;99.90
55173;DHT22;41061;52.822;6.860;2022-12-07T06:57:26;2.80;99.90
55173;DHT22;41061;52.822;6.860;2022-12-07T06:59:51;2.80;99.90
55173;DHT22;41061;52.822;6.860;2022-12-07T07:02:17;2.70;99.90
55173;DHT22;41061;52.822;6.860;2022-12-07T07:04:43;2.70;99.90
55173;DHT22;41061;52.822;6.860;2022-12-07T07:07:09;2.70;99.90
55173;DHT22;41061;52.822;6.860;2022-12-07T07:09:35;2.70;99.90
55173;DHT22;41061;52.822;6.860;2022-12-07T07:12:00;2.70;99.90
55173;DHT22;41061;52.822;6.860;2022-12-07T07:14:26;2.70;99.90
55173;DHT22;41061;52.822;6.860;2022-12-07T07:16:52;2.70;99.90
55173;DHT22;41061;52.822;6.860;2022-12-07T07:19:18;2.70;99.90
55173;DHT22;41061;52.822;6.860;2022-12-07T07:21:43;2.70;99.90
55173;DHT22;41061;52.822;6.860;2022-12-07T07:24:09;2.70;99.90
55173;DHT22;41061;52.822;6.860;2022-12-07T07:26:35;2.70;99.90
55173;DHT22;41061;52.822;6.860;2022-12-07T07:29:00;2.80;99.90
55173;DHT22;41061;52.822;6.860;2022-12-07T07:31:26;2.70;99.90
55173;DHT22;41061;52.822;6.860;2022-12-07T07:33:52;2.80;99.90
55173;DHT22;41061;52.822;6.860;2022-12-07T07:36:17;2.90;99.90
55173;DHT22;41061;52.822;6.860;2022-12-07T07:38:43;2.90;99.90
55173;DHT22;41061;52.822;6.860;2022-12-07T07:41:09;3.00;99.90
55173;DHT22;41061;52.822;6.860;2022-12-07T07:43:34;3.00;99.90
55173;DHT22;41061;52.822;6.860;2022-12-07T07:46:00;2.90;99.90
55173;DHT22;41061;52.822;6.860;2022-12-07T07:48:26;2.90;99.90
55173;DHT22;41061;52.822;6.860;2022-12-07T07:50:51;2.90;99.90
55173;DHT22;41061;52.822;6.860;2022-12-07T07:53:17;2.90;99.90
55173;DHT22;41061;52.822;6.860;2022-12-07T07:55:51;2.90;99.90
55173;DHT22;41061;52.822;6.860;2022-12-07T07:58:17;2.90;99.90
55173;DHT22;41061;52.822;6.860;2022-12-07T08:00:43;2.90;99.90
55173;DHT22;41061;52.822;6.860;2022-12-07T08:03:09;2.90;99.90
55173;DHT22;41061;52.822;6.860;2022-12-07T08:05:36;2.90;99.90
55173;DHT22;41061;52.822;6.860;2022-12-07T08:08:02;2.80;99.90
55173;DHT22;41061;52.822;6.860;2022-12-07T08:10:28;2.90;99.90
55173;DHT22;41061;52.822;6.860;2022-12-07T08:12:54;2.90;99.90
55173;DHT22;41061;52.822;6.860;2022-12-07T08:15:46;2.90;99.90
55173;DHT22;41061;52.822;6.860;2022-12-07T08:18:13;2.90;99.90
55173;DHT22;41061;52.822;6.860;2022-12-07T08:20:40;2.90;99.90
55173;DHT22;41061;52.822;6.860;2022-12-07T08:23:06;3.00;99.90
55173;DHT22;41061;52.822;6.860;2022-12-07T08:25:33;3.00;99.90
55173;DHT22;41061;52.822;6.860;2022-12-07T08:27:59;3.00;99.90
55173;DHT22;41061;52.822;6.860;2022-12-07T08:30:26;3.00;99.90
55173;DHT22;41061;52.822;6.860;2022-12-07T08:32:52;3.00;99.90
55173;DHT22;41061;52.822;6.860;2022-12-07T08:35:17;2.90;99.90
55173;DHT22;41061;52.822;6.860;2022-12-07T08:37:43;2.90;99.90
55173;DHT22;41061;52.822;6.860;2022-12-07T08:40:10;3.00;99.90
55173;DHT22;41061;52.822;6.860;2022-12-07T08:42:36;3.00;99.90
55173;DHT22;41061;52.822;6.860;2022-12-07T08:45:12;3.00;99.90
55173;DHT22;41061;52.822;6.860;2022-12-07T08:47:58;3.10;99.90
55173;DHT22;41061;52.822;6.860;2022-12-07T08:50:26;3.20;99.90
55173;DHT22;41061;52.822;6.860;2022-12-07T08:52:54;3.20;99.90
55173;DHT22;41061;52.822;6.860;2022-12-07T08:55:23;3.20;99.90
55173;DHT22;41061;52.822;6.860;2022-12-07T08:57:49;3.20;99.90
55173;DHT22;41061;52.822;6.860;2022-12-07T09:00:15;3.30;99.90
55173;DHT22;41061;52.822;6.860;2022-12-07T09:02:43;3.30;99.90
55173;DHT22;41061;52.822;6.860;2022-12-07T09:05:10;3.40;99.90
55173;DHT22;41061;52.822;6.860;2022-12-07T09:07:37;3.40;99.90
55173;DHT22;41061;52.822;6.860;2022-12-07T09:10:04;3.50;99.90
55173;DHT22;41061;52.822;6.860;2022-12-07T09:12:30;3.60;99.90
55173;DHT22;41061;52.822;6.860;2022-12-07T09:14:56;3.70;99.90
55173;DHT22;41061;52.822;6.860;2022-12-07T09:17:22;3.80;99.90
55173;DHT22;41061;52.822;6.860;2022-12-07T09:19:47;3.90;99.90
55173;DHT22;41061;52.822;6.860;2022-12-07T09:22:13;4.00;99.90
55173;DHT22;41061;52.822;6.860;2022-12-07T09:24:39;4.00;99.90
55173;DHT22;41061;52.822;6.860;2022-12-07T09:27:05;4.00;99.90
55173;DHT22;41061;52.822;6.860;2022-12-07T09:29:31;4.00;99.90
55173;DHT22;41061;52.822;6.860;2022-12-07T09:31:56;4.00;99.90
55173;DHT22;41061;52.822;6.860;2022-12-07T09:34:22;3.90;99.90
55173;DHT22;41061;52.822;6.860;2022-12-07T09:36:48;3.90;99.90
55173;DHT22;41061;52.822;6.860;2022-12-07T09:39:13;3.90;99.90
55173;DHT22;41061;52.822;6.860;2022-12-07T09:41:41;3.90;99.90
55173;DHT22;41061;52.822;6.860;2022-12-07T09:44:13;4.00;99.90
55173;DHT22;41061;52.822;6.860;2022-12-07T09:46:41;4.00;99.90
55173;DHT22;41061;52.822;6.860;2022-12-07T09:49:21;4.10;99.90
55173;DHT22;41061;52.822;6.860;2022-12-07T09:54:31;4.30;99.90
55173;DHT22;41061;52.822;6.860;2022-12-07T09:56:59;4.40;99.90
55173;DHT22;41061;52.822;6.860;2022-12-07T09:59:25;4.50;99.90
55173;DHT22;41061;52.822;6.860;2022-12-07T10:01:51;4.60;99.90
55173;DHT22;41061;52.822;6.860;2022-12-07T10:04:20;4.70;99.90
55173;DHT22;41061;52.822;6.860;2022-12-07T10:06:47;4.80;99.90
55173;DHT22;41061;52.822;6.860;2022-12-07T10:09:15;4.90;99.90
55173;DHT22;41061;52.822;6.860;2022-12-07T10:12:07;4.80;99.90
55173;DHT22;41061;52.822;6.860;2022-12-07T10:15:00;4.90;99.90
55173;DHT22;41061;52.822;6.860;2022-12-07T10:17:40;4.80;99.90
55173;DHT22;41061;52.822;6.860;2022-12-07T10:22:38;4.90;99.90
55173;DHT22;41061;52.822;6.860;2022-12-07T10:25:19;4.90;99.90
55173;DHT22;41061;52.822;6.860;2022-12-07T10:30:56;4.90;99.90
55173;DHT22;41061;52.822;6.860;2022-12-07T10:33:59;4.90;99.90
55173;DHT22;41061;52.822;6.860;2022-12-07T10:39:10;4.90;99.90
55173;DHT22;41061;52.822;6.860;2022-12-07T10:41:56;4.90;99.90
55173;DHT22;41061;52.822;6.860;2022-12-07T10:44:27;5.00;99.90
55173;DHT22;41061;52.822;6.860;2022-12-07T10:53:58;5.00;99.90
55173;DHT22;41061;52.822;6.860;2022-12-07T10:56:34;5.00;99.90
55173;DHT22;41061;52.822;6.860;2022-12-07T11:01:32;5.00;99.90
55173;DHT22;41061;52.822;6.860;2022-12-07T11:07:02;5.00;99.90
55173;DHT22;41061;52.822;6.860;2022-12-07T11:09:47;5.00;99.90
55173;DHT22;41061;52.822;6.860;2022-12-07T11:17:49;5.00;99.90
55173;DHT22;41061;52.822;6.860;2022-12-07T11:20:44;5.10;99.90
55173;DHT22;41061;52.822;6.860;2022-12-07T11:33:46;5.10;99.90
55173;DHT22;41061;52.822;6.860;2022-12-07T11:36:35;5.10;99.90
55173;DHT22;41061;52.822;6.860;2022-12-07T11:39:10;5.10;99.90
55173;DHT22;41061;52.822;6.860;2022-12-07T11:41:41;5.10;99.90
55173;DHT22;41061;52.822;6.860;2022-12-07T11:46:54;5.10;99.90
55173;DHT22;41061;52.822;6.860;2022-12-07T11:51:57;5.20;99.90
55173;DHT22;41061;52.822;6.860;2022-12-07T11:54:32;5.20;99.90
55173;DHT22;41061;52.822;6.860;2022-12-07T11:57:08;5.20;99.90
55173;DHT22;41061;52.822;6.860;2022-12-07T11:59:45;5.20;99.90
55173;DHT22;41061;52.822;6.860;2022-12-07T12:02:16;5.20;99.90
55173;DHT22;41061;52.822;6.860;2022-12-07T12:05:05;5.20;99.90
55173;DHT22;41061;52.822;6.860;2022-12-07T12:07:38;5.20;99.90
55173;DHT22;41061;52.822;6.860;2022-12-07T12:10:14;5.30;99.90
55173;DHT22;41061;52.822;6.860;2022-12-07T12:20:41;5.90;99.90
55173;DHT22;41061;52.822;6.860;2022-12-07T12:23:24;5.90;99.90
55173;DHT22;41061;52.822;6.860;2022-12-07T12:25:59;5.90;99.90
55173;DHT22;41061;52.822;6.860;2022-12-07T12:28:42;6.10;99.90
55173;DHT22;41061;52.822;6.860;2022-12-07T12:33:51;6.10;99.90
55173;DHT22;41061;52.822;6.860;2022-12-07T12:46:57;6.10;99.90
55173;DHT22;41061;52.822;6.860;2022-12-07T12:54:24;6.10;99.90
55173;DHT22;41061;52.822;6.860;2022-12-07T12:57:11;6.00;99.90
55173;DHT22;41061;52.822;6.860;2022-12-07T13:02:22;6.00;99.90
55173;DHT22;41061;52.822;6.860;2022-12-07T13:07:49;5.90;99.90
55173;DHT22;41061;52.822;6.860;2022-12-07T13:15:49;5.80;99.90
55173;DHT22;41061;52.822;6.860;2022-12-07T13:23:52;5.70;99.90
55173;DHT22;41061;52.822;6.860;2022-12-07T13:28:52;5.80;99.90
55173;DHT22;41061;52.822;6.860;2022-12-07T13:31:40;5.90;99.90
55173;DHT22;41061;52.822;6.860;2022-12-07T13:34:31;5.90;99.90
55173;DHT22;41061;52.822;6.860;2022-12-07T13:37:00;5.90;99.90
55173;DHT22;41061;52.822;6.860;2022-12-07T13:39:28;5.90;99.90
55173;DHT22;41061;52.822;6.860;2022-12-07T13:41:58;5.90;99.90
55173;DHT22;41061;52.822;6.860;2022-12-07T13:44:27;5.90;99.90
55173;DHT22;41061;52.822;6.860;2022-12-07T13:49:29;5.90;99.90
55173;DHT22;41061;52.822;6.860;2022-12-07T13:54:44;5.70;99.90
55173;DHT22;41061;52.822;6.860;2022-12-07T13:57:10;5.60;99.90
55173;DHT22;41061;52.822;6.860;2022-12-07T13:59:36;5.60;99.90
55173;DHT22;41061;52.822;6.860;2022-12-07T14:02:27;5.50;99.90
55173;DHT22;41061;52.822;6.860;2022-12-07T14:05:22;5.40;99.90
55173;DHT22;41061;52.822;6.860;2022-12-07T14:13:35;5.20;99.90
55173;DHT22;41061;52.822;6.860;2022-12-07T14:16:15;5.20;99.90
55173;DHT22;41061;52.822;6.860;2022-12-07T14:18:44;5.20;99.90
55173;DHT22;41061;52.822;6.860;2022-12-07T14:23:37;5.10;99.90
55173;DHT22;41061;52.822;6.860;2022-12-07T14:26:23;5.20;99.90
55173;DHT22;41061;52.822;6.860;2022-12-07T14:28:48;5.10;99.90
55173;DHT22;41061;52.822;6.860;2022-12-07T14:31:17;5.10;99.90
55173;DHT22;41061;52.822;6.860;2022-12-07T14:33:43;5.10;99.90
55173;DHT22;41061;52.822;6.860;2022-12-07T14:36:11;5.00;99.90
55173;DHT22;41061;52.822;6.860;2022-12-07T14:38:37;5.00;99.90
55173;DHT22;41061;52.822;6.860;2022-12-07T14:41:04;5.00;99.90
55173;DHT22;41061;52.822;6.860;2022-12-07T14:43:50;5.00;99.90
55173;DHT22;41061;52.822;6.860;2022-12-07T14:46:16;5.00;99.90
55173;DHT22;41061;52.822;6.860;2022-12-07T14:48:42;5.00;99.90
55173;DHT22;41061;52.822;6.860;2022-12-07T14:51:11;4.90;99.90
55173;DHT22;41061;52.822;6.860;2022-12-07T14:53:44;4.90;99.90
55173;DHT22;41061;52.822;6.860;2022-12-07T14:56:11;4.80;99.90
55173;DHT22;41061;52.822;6.860;2022-12-07T14:58:37;4.80;99.90
55173;DHT22;41061;52.822;6.860;2022-12-07T15:01:03;4.80;99.90
55173;DHT22;41061;52.822;6.860;2022-12-07T15:03:29;4.80;99.90
55173;DHT22;41061;52.822;6.860;2022-12-07T15:05:55;4.70;99.90
55173;DHT22;41061;52.822;6.860;2022-12-07T15:08:21;4.70;99.90
55173;DHT22;41061;52.822;6.860;2022-12-07T15:10:47;4.70;99.90
55173;DHT22;41061;52.822;6.860;2022-12-07T15:13:13;4.70;99.90
55173;DHT22;41061;52.822;6.860;2022-12-07T15:15:57;4.70;99.90
55173;DHT22;41061;52.822;6.860;2022-12-07T15:18:23;4.60;99.90
55173;DHT22;41061;52.822;6.860;2022-12-07T15:20:50;4.60;99.90
55173;DHT22;41061;52.822;6.860;2022-12-07T15:23:17;4.60;99.90
55173;DHT22;41061;52.822;6.860;2022-12-07T15:25:44;4.60;99.90
55173;DHT22;41061;52.822;6.860;2022-12-07T15:28:10;4.60;99.90
55173;DHT22;41061;52.822;6.860;2022-12-07T15:30:40;4.50;99.90
55173;DHT22;41061;52.822;6.860;2022-12-07T15:33:08;4.50;99.90
55173;DHT22;41061;52.822;6.860;2022-12-07T15:35:33;4.50;99.90
55173;DHT22;41061;52.822;6.860;2022-12-07T15:37:59;4.50;99.90
55173;DHT22;41061;52.822;6.860;2022-12-07T15:40:24;4.50;99.90
55173;DHT22;41061;52.822;6.860;2022-12-07T15:42:50;4.50;99.90
55173;DHT22;41061;52.822;6.860;2022-12-07T15:45:16;4.50;99.90
55173;DHT22;41061;52.822;6.860;2022-12-07T15:47:43;4.50;99.90
55173;DHT22;41061;52.822;6.860;2022-12-07T15:50:14;4.50;99.90
55173;DHT22;41061;52.822;6.860;2022-12-07T15:52:41;4.50;99.90
55173;DHT22;41061;52.822;6.860;2022-12-07T15:55:07;4.60;99.90
55173;DHT22;41061;52.822;6.860;2022-12-07T15:57:36;4.50;99.90
55173;DHT22;41061;52.822;6.860;2022-12-07T16:00:03;4.60;99.90
55173;DHT22;41061;52.822;6.860;2022-12-07T16:02:29;4.60;99.90
55173;DHT22;41061;52.822;6.860;2022-12-07T16:04:55;4.50;99.90
55173;DHT22;41061;52.822;6.860;2022-12-07T16:07:21;4.50;99.90
55173;DHT22;41061;52.822;6.860;2022-12-07T16:09:48;4.50;99.90
55173;DHT22;41061;52.822;6.860;2022-12-07T16:12:15;4.50;99.90
55173;DHT22;41061;52.822;6.860;2022-12-07T16:14:41;4.40;99.90
55173;DHT22;41061;52.822;6.860;2022-12-07T16:17:08;4.40;99.90
55173;DHT22;41061;52.822;6.860;2022-12-07T16:19:34;4.40;99.90
55173;DHT22;41061;52.822;6.860;2022-12-07T16:22:00;4.50;99.90
55173;DHT22;41061;52.822;6.860;2022-12-07T16:24:27;4.60;99.90
55173;DHT22;41061;52.822;6.860;2022-12-07T16:26:52;4.40;99.90
55173;DHT22;41061;52.822;6.860;2022-12-07T16:29:20;4.30;99.90
55173;DHT22;41061;52.822;6.860;2022-12-07T16:31:46;4.30;99.90
55173;DHT22;41061;52.822;6.860;2022-12-07T16:34:12;4.30;99.90
55173;DHT22;41061;52.822;6.860;2022-12-07T16:36:38;4.30;99.90
55173;DHT22;41061;52.822;6.860;2022-12-07T16:39:04;4.30;99.90
55173;DHT22;41061;52.822;6.860;2022-12-07T16:41:30;4.30;99.90
55173;DHT22;41061;52.822;6.860;2022-12-07T16:43:56;4.30;99.90
55173;DHT22;41061;52.822;6.860;2022-12-07T16:46:22;4.30;99.90
55173;DHT22;41061;52.822;6.860;2022-12-07T16:48:47;4.30;99.90
55173;DHT22;41061;52.822;6.860;2022-12-07T16:51:14;4.20;99.90
55173;DHT22;41061;52.822;6.860;2022-12-07T16:53:41;4.20;99.90
55173;DHT22;41061;52.822;6.860;2022-12-07T16:56:14;4.20;99.90
55173;DHT22;41061;52.822;6.860;2022-12-07T16:58:41;4.20;99.90
55173;DHT22;41061;52.822;6.860;2022-12-07T17:01:16;4.20;99.90
55173;DHT22;41061;52.822;6.860;2022-12-07T17:03:42;4.20;99.90
55173;DHT22;41061;52.822;6.860;2022-12-07T17:06:25;4.20;99.90
55173;DHT22;41061;52.822;6.860;2022-12-07T17:08:52;4.20;99.90
55173;DHT22;41061;52.822;6.860;2022-12-07T17:11:23;4.20;99.90
55173;DHT22;41061;52.822;6.860;2022-12-07T17:13:50;4.20;99.90
55173;DHT22;41061;52.822;6.860;2022-12-07T17:16:34;4.10;99.90
55173;DHT22;41061;52.822;6.860;2022-12-07T17:19:04;4.20;99.90
55173;DHT22;41061;52.822;6.860;2022-12-07T17:21:31;4.20;99.90
55173;DHT22;41061;52.822;6.860;2022-12-07T17:23:58;4.10;99.90
55173;DHT22;41061;52.822;6.860;2022-12-07T17:26:25;4.10;99.90
55173;DHT22;41061;52.822;6.860;2022-12-07T17:28:51;4.10;99.90
55173;DHT22;41061;52.822;6.860;2022-12-07T17:31:19;4.20;99.90
55173;DHT22;41061;52.822;6.860;2022-12-07T17:33:45;4.10;99.90
55173;DHT22;41061;52.822;6.860;2022-12-07T17:36:13;4.10;99.90
55173;DHT22;41061;52.822;6.860;2022-12-07T17:38:39;4.00;99.90
55173;DHT22;41061;52.822;6.860;2022-12-07T17:41:16;4.00;99.90
55173;DHT22;41061;52.822;6.860;2022-12-07T17:44:01;4.00;99.90
55173;DHT22;41061;52.822;6.860;2022-12-07T17:46:27;4.00;99.90
55173;DHT22;41061;52.822;6.860;2022-12-07T17:48:56;4.00;99.90
55173;DHT22;41061;52.822;6.860;2022-12-07T17:51:22;4.00;99.90
55173;DHT22;41061;52.822;6.860;2022-12-07T17:54:06;3.90;99.90
55173;DHT22;41061;52.822;6.860;2022-12-07T17:56:32;3.90;99.90
55173;DHT22;41061;52.822;6.860;2022-12-07T17:58:57;3.90;99.90
55173;DHT22;41061;52.822;6.860;2022-12-07T18:01:23;3.90;99.90
55173;DHT22;41061;52.822;6.860;2022-12-07T18:03:49;3.90;99.90
55173;DHT22;41061;52.822;6.860;2022-12-07T18:06:15;3.80;99.90
55173;DHT22;41061;52.822;6.860;2022-12-07T18:08:40;3.80;99.90